sensor_id;sensor_type;location;lat;lon;timestamp;P1;durP1;ratioP1;P2;durP2;ratioP2
61978;SDS011;47938;48.176;16.414;2023-01-23T00:01:01;29.20;;;18.42;;
61978;SDS011;47938;48.176;16.414;2023-01-23T00:03:29;28.40;;;17.80;;
61978;SDS011;47938;48.176;16.414;2023-01-23T00:05:58;30.77;;;18.48;;
61978;SDS011;47938;48.176;16.414;2023-01-23T00:08:25;32.95;;;18.77;;
61978;SDS011;47938;48.176;16.414;2023-01-23T00:10:51;25.88;;;15.98;;
61978;SDS011;47938;48.176;16.414;2023-01-23T00:13:17;28.38;;;17.80;;
61978;SDS011;47938;48.176;16.414;2023-01-23T00:15:42;31.80;;;18.30;;
61978;SDS011;47938;48.176;16.414;2023-01-23T00:18:08;27.55;;;17.08;;
61978;SDS011;47938;48.176;16.414;2023-01-23T00:20:37;27.50;;;17.10;;
61978;SDS011;47938;48.176;16.414;2023-01-23T00:23:04;29.75;;;17.08;;
61978;SDS011;47938;48.176;16.414;2023-01-23T00:25:30;28.80;;;18.15;;
61978;SDS011;47938;48.176;16.414;2023-01-23T00:27:56;28.08;;;17.10;;
61978;SDS011;47938;48.176;16.414;2023-01-23T00:30:22;25.15;;;16.30;;
61978;SDS011;47938;48.176;16.414;2023-01-23T00:32:48;27.98;;;17.70;;
61978;SDS011;47938;48.176;16.414;2023-01-23T00:35:13;28.40;;;17.55;;
61978;SDS011;47938;48.176;16.414;2023-01-23T00:37:39;29.17;;;16.35;;
61978;SDS011;47938;48.176;16.414;2023-01-23T00:40:05;26.45;;;15.50;;
61978;SDS011;47938;48.176;16.414;2023-01-23T00:42:31;27.75;;;16.92;;
61978;SDS011;47938;48.176;16.414;2023-01-23T00:44:56;25.58;;;17.05;;
61978;SDS011;47938;48.176;16.414;2023-01-23T00:47:22;25.55;;;14.85;;
61978;SDS011;47938;48.176;16.414;2023-01-23T00:49:47;27.08;;;16.30;;
61978;SDS011;47938;48.176;16.414;2023-01-23T00:52:13;25.55;;;16.67;;
61978;SDS011;47938;48.176;16.414;2023-01-23T00:54:39;26.77;;;16.30;;
61978;SDS011;47938;48.176;16.414;2023-01-23T00:57:04;28.63;;;17.35;;
61978;SDS011;47938;48.176;16.414;2023-01-23T00:59:30;29.45;;;16.77;;
61978;SDS011;47938;48.176;16.414;2023-01-23T01:01:56;30.88;;;17.05;;
61978;SDS011;47938;48.176;16.414;2023-01-23T01:04:21;29.73;;;17.38;;
61978;SDS011;47938;48.176;16.414;2023-01-23T01:06:47;27.77;;;17.35;;
61978;SDS011;47938;48.176;16.414;2023-01-23T01:09:12;33.42;;;18.05;;
61978;SDS011;47938;48.176;16.414;2023-01-23T01:11:38;27.95;;;17.48;;
61978;SDS011;47938;48.176;16.414;2023-01-23T01:14:04;24.77;;;16.38;;
61978;SDS011;47938;48.176;16.414;2023-01-23T01:16:29;30.00;;;17.08;;
61978;SDS011;47938;48.176;16.414;2023-01-23T01:18:55;32.13;;;18.23;;
61978;SDS011;47938;48.176;16.414;2023-01-23T01:21:21;34.00;;;19.05;;
61978;SDS011;47938;48.176;16.414;2023-01-23T01:23:46;29.75;;;18.35;;
61978;SDS011;47938;48.176;16.414;2023-01-23T01:26:12;31.77;;;19.23;;
61978;SDS011;47938;48.176;16.414;2023-01-23T01:28:38;30.27;;;17.88;;
61978;SDS011;47938;48.176;16.414;2023-01-23T01:31:06;29.63;;;19.10;;
61978;SDS011;47938;48.176;16.414;2023-01-23T01:33:37;34.42;;;20.02;;
61978;SDS011;47938;48.176;16.414;2023-01-23T01:36:07;34.85;;;19.88;;
61978;SDS011;47938;48.176;16.414;2023-01-23T01:38:34;33.20;;;19.20;;
61978;SDS011;47938;48.176;16.414;2023-01-23T01:41:00;35.40;;;19.42;;
61978;SDS011;47938;48.176;16.414;2023-01-23T01:43:25;31.58;;;18.85;;
61978;SDS011;47938;48.176;16.414;2023-01-23T01:48:41;31.10;;;18.40;;
61978;SDS011;47938;48.176;16.414;2023-01-23T01:51:14;33.13;;;18.60;;
61978;SDS011;47938;48.176;16.414;2023-01-23T01:54:02;38.35;;;20.58;;
61978;SDS011;47938;48.176;16.414;2023-01-23T01:56:34;35.47;;;19.77;;
61978;SDS011;47938;48.176;16.414;2023-01-23T01:59:08;36.33;;;20.45;;
61978;SDS011;47938;48.176;16.414;2023-01-23T02:01:35;32.38;;;18.23;;
61978;SDS011;47938;48.176;16.414;2023-01-23T02:04:01;34.58;;;20.13;;
61978;SDS011;47938;48.176;16.414;2023-01-23T02:06:28;36.05;;;20.23;;
61978;SDS011;47938;48.176;16.414;2023-01-23T02:08:56;35.90;;;18.45;;
61978;SDS011;47938;48.176;16.414;2023-01-23T02:11:44;37.83;;;19.95;;
61978;SDS011;47938;48.176;16.414;2023-01-23T02:14:10;35.22;;;19.80;;
61978;SDS011;47938;48.176;16.414;2023-01-23T02:16:36;35.97;;;18.92;;
61978;SDS011;47938;48.176;16.414;2023-01-23T02:19:03;34.92;;;19.17;;
61978;SDS011;47938;48.176;16.414;2023-01-23T02:21:45;34.30;;;18.67;;
61978;SDS011;47938;48.176;16.414;2023-01-23T02:26:48;34.17;;;19.35;;
61978;SDS011;47938;48.176;16.414;2023-01-23T02:29:14;35.15;;;19.80;;
61978;SDS011;47938;48.176;16.414;2023-01-23T02:31:40;33.42;;;18.17;;
61978;SDS011;47938;48.176;16.414;2023-01-23T02:34:05;30.63;;;17.08;;
61978;SDS011;47938;48.176;16.414;2023-01-23T02:36:34;35.58;;;20.63;;
61978;SDS011;47938;48.176;16.414;2023-01-23T02:41:37;34.22;;;19.67;;
61978;SDS011;47938;48.176;16.414;2023-01-23T02:44:12;36.42;;;21.17;;
61978;SDS011;47938;48.176;16.414;2023-01-23T02:46:45;36.65;;;21.33;;
61978;SDS011;47938;48.176;16.414;2023-01-23T02:49:11;36.45;;;21.25;;
61978;SDS011;47938;48.176;16.414;2023-01-23T02:51:36;35.72;;;20.10;;
61978;SDS011;47938;48.176;16.414;2023-01-23T02:54:02;38.33;;;21.13;;
61978;SDS011;47938;48.176;16.414;2023-01-23T02:56:28;37.35;;;19.55;;
61978;SDS011;47938;48.176;16.414;2023-01-23T02:58:54;43.08;;;22.33;;
61978;SDS011;47938;48.176;16.414;2023-01-23T03:01:19;37.63;;;19.17;;
61978;SDS011;47938;48.176;16.414;2023-01-23T03:03:45;41.00;;;19.75;;
61978;SDS011;47938;48.176;16.414;2023-01-23T03:06:11;39.90;;;22.23;;
61978;SDS011;47938;48.176;16.414;2023-01-23T03:08:36;40.15;;;22.67;;
61978;SDS011;47938;48.176;16.414;2023-01-23T03:11:03;41.90;;;22.55;;
61978;SDS011;47938;48.176;16.414;2023-01-23T03:13:29;42.60;;;22.55;;
61978;SDS011;47938;48.176;16.414;2023-01-23T03:15:54;42.60;;;22.35;;
61978;SDS011;47938;48.176;16.414;2023-01-23T03:18:20;38.95;;;22.88;;
61978;SDS011;47938;48.176;16.414;2023-01-23T03:20:46;43.38;;;22.35;;
61978;SDS011;47938;48.176;16.414;2023-01-23T03:23:11;39.30;;;21.88;;
61978;SDS011;47938;48.176;16.414;2023-01-23T03:25:38;40.10;;;22.45;;
61978;SDS011;47938;48.176;16.414;2023-01-23T03:28:07;41.75;;;23.77;;
61978;SDS011;47938;48.176;16.414;2023-01-23T03:30:33;40.10;;;23.15;;
61978;SDS011;47938;48.176;16.414;2023-01-23T03:32:58;43.28;;;22.70;;
61978;SDS011;47938;48.176;16.414;2023-01-23T03:35:24;42.75;;;22.83;;
61978;SDS011;47938;48.176;16.414;2023-01-23T03:37:49;43.60;;;23.63;;
61978;SDS011;47938;48.176;16.414;2023-01-23T03:40:16;33.38;;;19.90;;
61978;SDS011;47938;48.176;16.414;2023-01-23T03:42:42;31.83;;;18.60;;
61978;SDS011;47938;48.176;16.414;2023-01-23T03:45:08;38.53;;;19.90;;
61978;SDS011;47938;48.176;16.414;2023-01-23T03:47:34;34.22;;;20.15;;
61978;SDS011;47938;48.176;16.414;2023-01-23T03:50:00;41.05;;;22.58;;
61978;SDS011;47938;48.176;16.414;2023-01-23T03:52:25;43.83;;;22.40;;
61978;SDS011;47938;48.176;16.414;2023-01-23T03:54:51;27.45;;;16.63;;
61978;SDS011;47938;48.176;16.414;2023-01-23T03:57:17;43.03;;;22.33;;
61978;SDS011;47938;48.176;16.414;2023-01-23T03:59:43;40.92;;;21.65;;
61978;SDS011;47938;48.176;16.414;2023-01-23T04:02:08;43.58;;;23.83;;
61978;SDS011;47938;48.176;16.414;2023-01-23T04:04:34;45.10;;;22.40;;
61978;SDS011;47938;48.176;16.414;2023-01-23T04:07:01;42.40;;;23.50;;
61978;SDS011;47938;48.176;16.414;2023-01-23T04:09:27;43.17;;;22.95;;
61978;SDS011;47938;48.176;16.414;2023-01-23T04:11:54;46.17;;;21.35;;
61978;SDS011;47938;48.176;16.414;2023-01-23T04:14:20;45.22;;;23.27;;
61978;SDS011;47938;48.176;16.414;2023-01-23T04:16:46;44.65;;;24.15;;
61978;SDS011;47938;48.176;16.414;2023-01-23T04:19:12;40.40;;;22.63;;
61978;SDS011;47938;48.176;16.414;2023-01-23T04:21:38;44.28;;;22.77;;
61978;SDS011;47938;48.176;16.414;2023-01-23T04:24:03;41.47;;;23.30;;
61978;SDS011;47938;48.176;16.414;2023-01-23T04:26:29;46.65;;;22.80;;
61978;SDS011;47938;48.176;16.414;2023-01-23T04:28:55;43.88;;;23.90;;
61978;SDS011;47938;48.176;16.414;2023-01-23T04:31:21;45.28;;;22.83;;
61978;SDS011;47938;48.176;16.414;2023-01-23T04:33:46;45.33;;;22.63;;
61978;SDS011;47938;48.176;16.414;2023-01-23T04:36:12;41.28;;;22.65;;
61978;SDS011;47938;48.176;16.414;2023-01-23T04:38:37;52.20;;;24.30;;
61978;SDS011;47938;48.176;16.414;2023-01-23T04:41:03;43.15;;;22.63;;
61978;SDS011;47938;48.176;16.414;2023-01-23T04:43:29;47.20;;;24.17;;
61978;SDS011;47938;48.176;16.414;2023-01-23T04:45:55;43.22;;;21.73;;
61978;SDS011;47938;48.176;16.414;2023-01-23T04:48:21;51.97;;;24.00;;
61978;SDS011;47938;48.176;16.414;2023-01-23T04:50:48;38.55;;;21.65;;
61978;SDS011;47938;48.176;16.414;2023-01-23T04:53:14;45.80;;;23.83;;
61978;SDS011;47938;48.176;16.414;2023-01-23T04:55:40;44.15;;;21.85;;
61978;SDS011;47938;48.176;16.414;2023-01-23T04:58:05;39.50;;;20.50;;
61978;SDS011;47938;48.176;16.414;2023-01-23T05:00:31;31.73;;;17.05;;
61978;SDS011;47938;48.176;16.414;2023-01-23T05:02:57;43.60;;;19.73;;
61978;SDS011;47938;48.176;16.414;2023-01-23T05:05:23;34.60;;;18.50;;
61978;SDS011;47938;48.176;16.414;2023-01-23T05:07:49;37.47;;;18.13;;
61978;SDS011;47938;48.176;16.414;2023-01-23T05:10:15;37.28;;;19.88;;
61978;SDS011;47938;48.176;16.414;2023-01-23T05:12:42;42.25;;;21.70;;
61978;SDS011;47938;48.176;16.414;2023-01-23T05:15:08;43.97;;;22.80;;
61978;SDS011;47938;48.176;16.414;2023-01-23T05:17:34;40.17;;;20.98;;
61978;SDS011;47938;48.176;16.414;2023-01-23T05:20:00;34.20;;;18.77;;
61978;SDS011;47938;48.176;16.414;2023-01-23T05:22:26;29.95;;;14.57;;
61978;SDS011;47938;48.176;16.414;2023-01-23T05:24:52;43.55;;;21.27;;
61978;SDS011;47938;48.176;16.414;2023-01-23T05:27:17;34.28;;;18.27;;
61978;SDS011;47938;48.176;16.414;2023-01-23T05:29:43;41.33;;;20.50;;
61978;SDS011;47938;48.176;16.414;2023-01-23T05:32:08;38.72;;;19.70;;
61978;SDS011;47938;48.176;16.414;2023-01-23T05:34:34;36.03;;;19.27;;
61978;SDS011;47938;48.176;16.414;2023-01-23T05:37:00;32.53;;;17.15;;
61978;SDS011;47938;48.176;16.414;2023-01-23T05:39:25;43.38;;;20.77;;
61978;SDS011;47938;48.176;16.414;2023-01-23T05:41:51;36.00;;;17.27;;
61978;SDS011;47938;48.176;16.414;2023-01-23T05:44:17;40.42;;;21.60;;
61978;SDS011;47938;48.176;16.414;2023-01-23T05:46:42;34.53;;;17.98;;
61978;SDS011;47938;48.176;16.414;2023-01-23T05:49:08;33.72;;;17.45;;
61978;SDS011;47938;48.176;16.414;2023-01-23T05:51:34;32.15;;;18.27;;
61978;SDS011;47938;48.176;16.414;2023-01-23T05:54:00;28.27;;;16.13;;
61978;SDS011;47938;48.176;16.414;2023-01-23T05:56:26;36.85;;;19.50;;
61978;SDS011;47938;48.176;16.414;2023-01-23T05:58:52;37.47;;;18.65;;
61978;SDS011;47938;48.176;16.414;2023-01-23T06:01:18;30.25;;;15.43;;
61978;SDS011;47938;48.176;16.414;2023-01-23T06:03:45;35.35;;;18.17;;
61978;SDS011;47938;48.176;16.414;2023-01-23T06:06:11;37.08;;;19.60;;
61978;SDS011;47938;48.176;16.414;2023-01-23T06:08:37;35.33;;;17.70;;
61978;SDS011;47938;48.176;16.414;2023-01-23T06:11:03;39.25;;;20.38;;
61978;SDS011;47938;48.176;16.414;2023-01-23T06:13:28;39.03;;;20.63;;
61978;SDS011;47938;48.176;16.414;2023-01-23T06:15:54;30.83;;;16.92;;
61978;SDS011;47938;48.176;16.414;2023-01-23T06:18:20;33.83;;;18.48;;
61978;SDS011;47938;48.176;16.414;2023-01-23T06:20:47;35.83;;;19.05;;
61978;SDS011;47938;48.176;16.414;2023-01-23T06:23:12;36.95;;;19.70;;
61978;SDS011;47938;48.176;16.414;2023-01-23T06:25:39;38.55;;;19.40;;
61978;SDS011;47938;48.176;16.414;2023-01-23T06:28:06;33.22;;;18.10;;
61978;SDS011;47938;48.176;16.414;2023-01-23T06:30:31;31.50;;;17.58;;
61978;SDS011;47938;48.176;16.414;2023-01-23T06:32:57;23.45;;;13.93;;
61978;SDS011;47938;48.176;16.414;2023-01-23T06:35:23;34.55;;;17.92;;
61978;SDS011;47938;48.176;16.414;2023-01-23T06:37:48;31.73;;;18.30;;
61978;SDS011;47938;48.176;16.414;2023-01-23T06:40:14;25.98;;;14.30;;
61978;SDS011;47938;48.176;16.414;2023-01-23T06:42:40;28.27;;;15.82;;
61978;SDS011;47938;48.176;16.414;2023-01-23T06:45:07;31.58;;;16.67;;
61978;SDS011;47938;48.176;16.414;2023-01-23T06:47:34;25.77;;;14.82;;
61978;SDS011;47938;48.176;16.414;2023-01-23T06:50:00;29.73;;;14.60;;
61978;SDS011;47938;48.176;16.414;2023-01-23T06:52:26;28.25;;;16.65;;
61978;SDS011;47938;48.176;16.414;2023-01-23T06:54:52;27.42;;;15.02;;
61978;SDS011;47938;48.176;16.414;2023-01-23T06:57:18;25.23;;;15.82;;
61978;SDS011;47938;48.176;16.414;2023-01-23T06:59:44;27.30;;;16.67;;
61978;SDS011;47938;48.176;16.414;2023-01-23T07:02:10;33.53;;;17.60;;
61978;SDS011;47938;48.176;16.414;2023-01-23T07:04:36;31.83;;;17.52;;
61978;SDS011;47938;48.176;16.414;2023-01-23T07:07:02;27.10;;;16.63;;
61978;SDS011;47938;48.176;16.414;2023-01-23T07:09:28;29.33;;;15.18;;
61978;SDS011;47938;48.176;16.414;2023-01-23T07:11:54;28.95;;;16.08;;
61978;SDS011;47938;48.176;16.414;2023-01-23T07:14:19;29.70;;;16.25;;
61978;SDS011;47938;48.176;16.414;2023-01-23T07:16:45;27.42;;;15.07;;
61978;SDS011;47938;48.176;16.414;2023-01-23T07:19:10;25.50;;;15.30;;
61978;SDS011;47938;48.176;16.414;2023-01-23T07:21:36;21.88;;;14.07;;
61978;SDS011;47938;48.176;16.414;2023-01-23T07:24:02;27.30;;;15.30;;
61978;SDS011;47938;48.176;16.414;2023-01-23T07:26:27;26.52;;;14.52;;
61978;SDS011;47938;48.176;16.414;2023-01-23T07:28:53;26.90;;;15.70;;
61978;SDS011;47938;48.176;16.414;2023-01-23T07:31:19;29.02;;;15.52;;
61978;SDS011;47938;48.176;16.414;2023-01-23T07:33:45;29.27;;;15.50;;
61978;SDS011;47938;48.176;16.414;2023-01-23T07:36:10;26.40;;;14.07;;
61978;SDS011;47938;48.176;16.414;2023-01-23T07:38:36;25.30;;;14.15;;
61978;SDS011;47938;48.176;16.414;2023-01-23T07:41:01;25.95;;;14.50;;
61978;SDS011;47938;48.176;16.414;2023-01-23T07:43:27;26.98;;;15.98;;
61978;SDS011;47938;48.176;16.414;2023-01-23T07:45:53;29.70;;;15.77;;
61978;SDS011;47938;48.176;16.414;2023-01-23T07:48:18;25.48;;;13.73;;
61978;SDS011;47938;48.176;16.414;2023-01-23T07:50:44;27.08;;;13.93;;
61978;SDS011;47938;48.176;16.414;2023-01-23T07:53:09;27.13;;;14.32;;
61978;SDS011;47938;48.176;16.414;2023-01-23T07:55:38;24.05;;;15.02;;
61978;SDS011;47938;48.176;16.414;2023-01-23T07:58:04;27.55;;;14.82;;
61978;SDS011;47938;48.176;16.414;2023-01-23T08:00:29;20.67;;;12.80;;
61978;SDS011;47938;48.176;16.414;2023-01-23T08:02:55;27.45;;;15.85;;
61978;SDS011;47938;48.176;16.414;2023-01-23T08:05:21;27.30;;;15.70;;
61978;SDS011;47938;48.176;16.414;2023-01-23T08:07:47;29.02;;;16.08;;
61978;SDS011;47938;48.176;16.414;2023-01-23T08:10:12;33.47;;;15.23;;
61978;SDS011;47938;48.176;16.414;2023-01-23T08:12:38;32.55;;;15.70;;
61978;SDS011;47938;48.176;16.414;2023-01-23T08:15:04;26.17;;;14.35;;
61978;SDS011;47938;48.176;16.414;2023-01-23T08:17:30;28.35;;;16.92;;
61978;SDS011;47938;48.176;16.414;2023-01-23T08:19:55;21.95;;;14.02;;
61978;SDS011;47938;48.176;16.414;2023-01-23T08:22:21;24.83;;;13.90;;
61978;SDS011;47938;48.176;16.414;2023-01-23T08:24:47;28.30;;;15.93;;
61978;SDS011;47938;48.176;16.414;2023-01-23T08:27:13;28.10;;;16.20;;
61978;SDS011;47938;48.176;16.414;2023-01-23T08:29:38;19.30;;;10.73;;
61978;SDS011;47938;48.176;16.414;2023-01-23T08:32:04;29.65;;;15.60;;
61978;SDS011;47938;48.176;16.414;2023-01-23T08:34:30;32.17;;;15.88;;
61978;SDS011;47938;48.176;16.414;2023-01-23T08:36:56;31.35;;;16.38;;
61978;SDS011;47938;48.176;16.414;2023-01-23T08:39:21;26.52;;;15.40;;
61978;SDS011;47938;48.176;16.414;2023-01-23T08:41:47;33.67;;;17.73;;
61978;SDS011;47938;48.176;16.414;2023-01-23T08:44:12;27.83;;;16.77;;
61978;SDS011;47938;48.176;16.414;2023-01-23T08:46:38;32.05;;;15.90;;
61978;SDS011;47938;48.176;16.414;2023-01-23T08:49:04;28.70;;;16.98;;
61978;SDS011;47938;48.176;16.414;2023-01-23T08:51:29;31.30;;;15.93;;
61978;SDS011;47938;48.176;16.414;2023-01-23T08:53:55;29.75;;;15.60;;
61978;SDS011;47938;48.176;16.414;2023-01-23T08:56:21;25.10;;;14.45;;
61978;SDS011;47938;48.176;16.414;2023-01-23T08:58:47;31.80;;;16.40;;
61978;SDS011;47938;48.176;16.414;2023-01-23T09:01:15;28.73;;;16.10;;
61978;SDS011;47938;48.176;16.414;2023-01-23T09:03:49;33.35;;;15.88;;
61978;SDS011;47938;48.176;16.414;2023-01-23T09:06:15;26.60;;;14.52;;
61978;SDS011;47938;48.176;16.414;2023-01-23T09:08:43;32.97;;;16.38;;
61978;SDS011;47938;48.176;16.414;2023-01-23T09:11:09;32.65;;;15.43;;
61978;SDS011;47938;48.176;16.414;2023-01-23T09:13:36;23.75;;;12.68;;
61978;SDS011;47938;48.176;16.414;2023-01-23T09:16:02;33.22;;;18.02;;
61978;SDS011;47938;48.176;16.414;2023-01-23T09:18:28;31.83;;;16.65;;
61978;SDS011;47938;48.176;16.414;2023-01-23T09:20:54;32.00;;;15.68;;
61978;SDS011;47938;48.176;16.414;2023-01-23T09:23:20;35.63;;;17.52;;
61978;SDS011;47938;48.176;16.414;2023-01-23T09:25:46;36.47;;;17.33;;
61978;SDS011;47938;48.176;16.414;2023-01-23T09:28:12;34.17;;;17.13;;
61978;SDS011;47938;48.176;16.414;2023-01-23T09:30:38;31.45;;;17.17;;
61978;SDS011;47938;48.176;16.414;2023-01-23T09:33:04;32.22;;;16.55;;
61978;SDS011;47938;48.176;16.414;2023-01-23T09:35:30;34.78;;;16.75;;
61978;SDS011;47938;48.176;16.414;2023-01-23T09:37:56;38.08;;;17.13;;
61978;SDS011;47938;48.176;16.414;2023-01-23T09:40:22;33.22;;;16.73;;
61978;SDS011;47938;48.176;16.414;2023-01-23T09:42:49;31.55;;;16.60;;
61978;SDS011;47938;48.176;16.414;2023-01-23T09:45:17;35.22;;;17.13;;
61978;SDS011;47938;48.176;16.414;2023-01-23T09:47:50;32.83;;;15.43;;
61978;SDS011;47938;48.176;16.414;2023-01-23T09:50:35;30.88;;;15.43;;
61978;SDS011;47938;48.176;16.414;2023-01-23T09:53:05;28.33;;;13.98;;
61978;SDS011;47938;48.176;16.414;2023-01-23T09:55:43;28.70;;;14.73;;
61978;SDS011;47938;48.176;16.414;2023-01-23T10:01:02;24.48;;;13.50;;
61978;SDS011;47938;48.176;16.414;2023-01-23T10:03:28;24.05;;;13.27;;
61978;SDS011;47938;48.176;16.414;2023-01-23T10:08:32;26.27;;;13.77;;
61978;SDS011;47938;48.176;16.414;2023-01-23T10:13:50;25.88;;;13.57;;
61978;SDS011;47938;48.176;16.414;2023-01-23T10:26:58;18.85;;;10.40;;
61978;SDS011;47938;48.176;16.414;2023-01-23T10:29:37;21.45;;;11.13;;
61978;SDS011;47938;48.176;16.414;2023-01-23T10:32:23;20.38;;;11.75;;
61978;SDS011;47938;48.176;16.414;2023-01-23T10:35:11;25.52;;;14.02;;
61978;SDS011;47938;48.176;16.414;2023-01-23T10:37:44;21.33;;;12.70;;
61978;SDS011;47938;48.176;16.414;2023-01-23T10:40:25;22.70;;;13.15;;
61978;SDS011;47938;48.176;16.414;2023-01-23T10:42:50;25.77;;;13.68;;
61978;SDS011;47938;48.176;16.414;2023-01-23T10:45:16;22.58;;;12.95;;
61978;SDS011;47938;48.176;16.414;2023-01-23T10:47:45;23.13;;;11.77;;
61978;SDS011;47938;48.176;16.414;2023-01-23T10:50:12;20.67;;;11.65;;
61978;SDS011;47938;48.176;16.414;2023-01-23T10:52:45;20.40;;;12.15;;
61978;SDS011;47938;48.176;16.414;2023-01-23T10:57:46;16.10;;;10.50;;
61978;SDS011;47938;48.176;16.414;2023-01-23T11:02:50;21.95;;;13.35;;
61978;SDS011;47938;48.176;16.414;2023-01-23T11:05:36;23.77;;;12.48;;
61978;SDS011;47938;48.176;16.414;2023-01-23T11:08:07;20.20;;;11.05;;
61978;SDS011;47938;48.176;16.414;2023-01-23T11:11:16;18.15;;;11.98;;
61978;SDS011;47938;48.176;16.414;2023-01-23T11:13:48;23.13;;;12.02;;
61978;SDS011;47938;48.176;16.414;2023-01-23T11:18:54;20.63;;;12.05;;
61978;SDS011;47938;48.176;16.414;2023-01-23T11:21:52;21.17;;;11.85;;
61978;SDS011;47938;48.176;16.414;2023-01-23T11:24:20;22.83;;;13.18;;
61978;SDS011;47938;48.176;16.414;2023-01-23T11:32:21;20.90;;;12.07;;
61978;SDS011;47938;48.176;16.414;2023-01-23T11:34:51;22.92;;;13.02;;
61978;SDS011;47938;48.176;16.414;2023-01-23T11:37:32;20.38;;;12.85;;
61978;SDS011;47938;48.176;16.414;2023-01-23T11:40:04;21.05;;;12.25;;
61978;SDS011;47938;48.176;16.414;2023-01-23T11:42:36;29.88;;;14.85;;
61978;SDS011;47938;48.176;16.414;2023-01-23T11:45:07;25.10;;;13.05;;
61978;SDS011;47938;48.176;16.414;2023-01-23T11:48:13;21.20;;;12.90;;
61978;SDS011;47938;48.176;16.414;2023-01-23T11:50:48;22.27;;;13.35;;
61978;SDS011;47938;48.176;16.414;2023-01-23T11:53:32;27.08;;;12.95;;
61978;SDS011;47938;48.176;16.414;2023-01-23T11:56:14;18.60;;;11.57;;
61978;SDS011;47938;48.176;16.414;2023-01-23T11:59:04;20.95;;;12.48;;
61978;SDS011;47938;48.176;16.414;2023-01-23T12:07:49;21.52;;;11.68;;
61978;SDS011;47938;48.176;16.414;2023-01-23T12:10:26;20.70;;;12.60;;
61978;SDS011;47938;48.176;16.414;2023-01-23T12:13:07;20.63;;;11.68;;
61978;SDS011;47938;48.176;16.414;2023-01-23T12:21:19;21.15;;;12.07;;
61978;SDS011;47938;48.176;16.414;2023-01-23T12:26:58;17.25;;;11.40;;
61978;SDS011;47938;48.176;16.414;2023-01-23T12:29:47;22.90;;;12.40;;
61978;SDS011;47938;48.176;16.414;2023-01-23T12:40:32;15.77;;;10.43;;
61978;SDS011;47938;48.176;16.414;2023-01-23T12:45:49;18.92;;;11.57;;
61978;SDS011;47938;48.176;16.414;2023-01-23T12:48:34;20.02;;;11.85;;
61978;SDS011;47938;48.176;16.414;2023-01-23T12:53:35;20.23;;;12.30;;
61978;SDS011;47938;48.176;16.414;2023-01-23T12:58:39;18.13;;;11.85;;
61978;SDS011;47938;48.176;16.414;2023-01-23T13:12:26;18.23;;;11.73;;
61978;SDS011;47938;48.176;16.414;2023-01-23T13:14:53;19.27;;;12.27;;
61978;SDS011;47938;48.176;16.414;2023-01-23T13:17:38;17.50;;;11.50;;
61978;SDS011;47938;48.176;16.414;2023-01-23T13:26:10;20.17;;;11.45;;
61978;SDS011;47938;48.176;16.414;2023-01-23T13:28:59;15.27;;;10.60;;
61978;SDS011;47938;48.176;16.414;2023-01-23T13:31:44;18.10;;;11.60;;
61978;SDS011;47938;48.176;16.414;2023-01-23T13:36:43;21.50;;;12.85;;
61978;SDS011;47938;48.176;16.414;2023-01-23T13:41:42;24.17;;;12.45;;
61978;SDS011;47938;48.176;16.414;2023-01-23T13:44:22;21.27;;;12.20;;
61978;SDS011;47938;48.176;16.414;2023-01-23T13:47:03;17.98;;;11.48;;
61978;SDS011;47938;48.176;16.414;2023-01-23T13:49:50;18.00;;;11.95;;
61978;SDS011;47938;48.176;16.414;2023-01-23T13:52:25;17.20;;;10.07;;
61978;SDS011;47938;48.176;16.414;2023-01-23T13:55:03;16.33;;;11.30;;
61978;SDS011;47938;48.176;16.414;2023-01-23T13:57:41;17.55;;;11.32;;
61978;SDS011;47938;48.176;16.414;2023-01-23T14:00:25;18.70;;;10.32;;
61978;SDS011;47938;48.176;16.414;2023-01-23T14:05:25;18.25;;;11.05;;
61978;SDS011;47938;48.176;16.414;2023-01-23T14:08:00;16.90;;;10.77;;
61978;SDS011;47938;48.176;16.414;2023-01-23T14:10:28;14.75;;;10.48;;
61978;SDS011;47938;48.176;16.414;2023-01-23T14:15:48;17.10;;;11.50;;
61978;SDS011;47938;48.176;16.414;2023-01-23T14:18:21;16.40;;;11.23;;
61978;SDS011;47938;48.176;16.414;2023-01-23T14:21:00;16.05;;;11.50;;
61978;SDS011;47938;48.176;16.414;2023-01-23T14:23:31;14.65;;;9.82;;
61978;SDS011;47938;48.176;16.414;2023-01-23T14:26:01;19.02;;;10.77;;
61978;SDS011;47938;48.176;16.414;2023-01-23T14:28:28;16.67;;;10.80;;
61978;SDS011;47938;48.176;16.414;2023-01-23T14:30:58;17.95;;;11.10;;
61978;SDS011;47938;48.176;16.414;2023-01-23T14:33:26;15.10;;;9.80;;
61978;SDS011;47938;48.176;16.414;2023-01-23T14:35:52;17.15;;;11.15;;
61978;SDS011;47938;48.176;16.414;2023-01-23T14:38:21;17.40;;;11.23;;
61978;SDS011;47938;48.176;16.414;2023-01-23T14:40:52;18.42;;;10.63;;
61978;SDS011;47938;48.176;16.414;2023-01-23T14:43:22;16.17;;;10.18;;
61978;SDS011;47938;48.176;16.414;2023-01-23T14:46:01;15.18;;;9.20;;
61978;SDS011;47938;48.176;16.414;2023-01-23T14:48:39;15.50;;;9.88;;
61978;SDS011;47938;48.176;16.414;2023-01-23T14:51:27;17.48;;;11.02;;
61978;SDS011;47938;48.176;16.414;2023-01-23T14:53:56;22.50;;;10.98;;
61978;SDS011;47938;48.176;16.414;2023-01-23T14:56:28;20.02;;;11.38;;
61978;SDS011;47938;48.176;16.414;2023-01-23T14:59:00;14.80;;;9.63;;
61978;SDS011;47938;48.176;16.414;2023-01-23T15:01:29;19.55;;;11.65;;
61978;SDS011;47938;48.176;16.414;2023-01-23T15:03:56;15.15;;;10.38;;
61978;SDS011;47938;48.176;16.414;2023-01-23T15:06:27;17.80;;;10.27;;
61978;SDS011;47938;48.176;16.414;2023-01-23T15:08:55;16.55;;;9.90;;
61978;SDS011;47938;48.176;16.414;2023-01-23T15:11:30;16.48;;;10.85;;
61978;SDS011;47938;48.176;16.414;2023-01-23T15:13:56;16.30;;;9.85;;
61978;SDS011;47938;48.176;16.414;2023-01-23T15:16:24;15.93;;;10.35;;
61978;SDS011;47938;48.176;16.414;2023-01-23T15:21:36;16.88;;;10.35;;
61978;SDS011;47938;48.176;16.414;2023-01-23T15:24:05;16.00;;;10.27;;
61978;SDS011;47938;48.176;16.414;2023-01-23T15:26:59;14.43;;;10.02;;
61978;SDS011;47938;48.176;16.414;2023-01-23T15:29:30;15.80;;;9.43;;
61978;SDS011;47938;48.176;16.414;2023-01-23T15:31:57;13.05;;;8.88;;
61978;SDS011;47938;48.176;16.414;2023-01-23T15:34:29;14.02;;;9.95;;
61978;SDS011;47938;48.176;16.414;2023-01-23T15:39:50;12.57;;;9.40;;
61978;SDS011;47938;48.176;16.414;2023-01-23T15:42:24;17.13;;;9.43;;
61978;SDS011;47938;48.176;16.414;2023-01-23T15:44:51;18.35;;;10.45;;
61978;SDS011;47938;48.176;16.414;2023-01-23T15:47:17;17.95;;;9.88;;
61978;SDS011;47938;48.176;16.414;2023-01-23T15:49:43;16.88;;;10.48;;
61978;SDS011;47938;48.176;16.414;2023-01-23T15:52:25;16.67;;;10.23;;
61978;SDS011;47938;48.176;16.414;2023-01-23T15:55:03;19.67;;;11.30;;
61978;SDS011;47938;48.176;16.414;2023-01-23T15:57:29;18.40;;;11.07;;
61978;SDS011;47938;48.176;16.414;2023-01-23T15:59:55;15.07;;;9.02;;
61978;SDS011;47938;48.176;16.414;2023-01-23T16:02:21;18.13;;;10.07;;